createdAt,value
2023-04-27T00:01:36.913Z,6.13
2023-04-27T00:04:07.468Z,6.28
2023-04-27T00:06:34.485Z,5.90
2023-04-27T00:09:01.653Z,6.43
2023-04-27T00:11:28.331Z,5.95
2023-04-27T00:13:54.930Z,6.15
2023-04-27T00:16:21.815Z,5.70
2023-04-27T00:18:48.846Z,6.20
2023-04-27T00:21:15.526Z,6.13
2023-04-27T00:23:42.263Z,6.35
2023-04-27T00:26:08.884Z,6.32
2023-04-27T00:28:35.691Z,6.00
2023-04-27T00:31:03.634Z,6.10
2023-04-27T00:33:30.431Z,6.05
2023-04-27T00:36:02.842Z,5.65
2023-04-27T00:38:30.779Z,6.43
2023-04-27T00:41:04.880Z,6.22
2023-04-27T00:43:32.470Z,6.65
2023-04-27T00:45:59.849Z,6.07
2023-04-27T00:48:26.815Z,5.82
2023-04-27T00:50:53.808Z,5.95
2023-04-27T00:53:20.734Z,5.47
2023-04-27T00:55:48.181Z,5.97
2023-04-27T00:58:15.238Z,5.28
2023-04-27T01:00:42.036Z,6.30
2023-04-27T01:03:09.534Z,5.90
2023-04-27T01:05:37.472Z,6.13
2023-04-27T01:08:04.713Z,5.88
2023-04-27T01:10:31.315Z,7.10
2023-04-27T01:12:58.102Z,6.07
2023-04-27T01:15:24.811Z,6.40
2023-04-27T01:18:01.844Z,5.78
2023-04-27T01:20:31.924Z,6.28
2023-04-27T01:22:59.077Z,5.95
2023-04-27T01:25:26.086Z,6.50
2023-04-27T01:27:54.123Z,5.72
2023-04-27T01:30:22.417Z,6.13
2023-04-27T01:32:50.000Z,6.40
2023-04-27T01:35:17.038Z,5.82
2023-04-27T01:37:43.762Z,6.22
2023-04-27T01:40:10.873Z,5.80
2023-04-27T01:42:38.254Z,5.57
2023-04-27T01:45:05.420Z,6.10
2023-04-27T01:47:32.116Z,5.38
2023-04-27T01:49:58.750Z,6.80
2023-04-27T01:52:25.955Z,6.68
2023-04-27T01:54:52.557Z,6.32
2023-04-27T01:57:19.530Z,6.60
2023-04-27T01:59:46.234Z,6.18
2023-04-27T02:02:12.863Z,6.82
2023-04-27T02:04:39.652Z,6.45
2023-04-27T02:07:06.656Z,5.80
2023-04-27T02:09:33.539Z,5.82
2023-04-27T02:12:00.449Z,6.35
2023-04-27T02:14:27.035Z,6.20
2023-04-27T02:16:53.674Z,6.40
2023-04-27T02:19:20.323Z,5.43
2023-04-27T02:21:47.167Z,6.70
2023-04-27T02:24:13.744Z,6.32
2023-04-27T02:26:40.683Z,6.63
2023-04-27T02:29:07.773Z,6.55
2023-04-27T02:31:35.346Z,7.05
2023-04-27T02:34:02.013Z,7.00
2023-04-27T02:36:29.043Z,6.30
2023-04-27T02:38:56.342Z,6.55
2023-04-27T02:41:23.066Z,6.70
2023-04-27T02:43:51.475Z,7.28
2023-04-27T02:46:18.148Z,7.05
2023-04-27T02:48:44.911Z,7.28
2023-04-27T02:51:11.567Z,7.05
2023-04-27T02:53:38.137Z,8.10
2023-04-27T02:56:05.055Z,7.28
2023-04-27T02:58:31.880Z,7.80
2023-04-27T03:00:59.002Z,7.80
2023-04-27T03:03:26.409Z,7.20
2023-04-27T03:05:53.100Z,8.10
2023-04-27T03:08:19.748Z,7.82
2023-04-27T03:10:46.647Z,8.05
2023-04-27T03:13:14.977Z,8.50
2023-04-27T03:15:41.607Z,8.35
2023-04-27T03:18:08.309Z,7.68
2023-04-27T03:20:34.984Z,7.80
2023-04-27T03:23:02.063Z,8.40
2023-04-27T03:25:28.742Z,8.52
2023-04-27T03:27:55.389Z,8.32
2023-04-27T03:30:22.084Z,7.95
2023-04-27T03:32:48.808Z,7.95
2023-04-27T03:35:15.792Z,7.68
2023-04-27T03:37:42.498Z,8.00
2023-04-27T03:40:09.722Z,8.00
2023-04-27T03:42:36.329Z,7.90
2023-04-27T03:45:03.054Z,8.27
2023-04-27T03:47:29.728Z,7.95
2023-04-27T03:49:56.569Z,8.32
2023-04-27T03:52:23.248Z,7.85
2023-04-27T03:54:50.081Z,7.95
2023-04-27T03:57:16.689Z,8.30
2023-04-27T03:59:43.338Z,7.60
2023-04-27T04:02:11.515Z,7.78
2023-04-27T04:04:38.473Z,7.22
2023-04-27T04:07:05.733Z,7.82
2023-04-27T04:09:32.338Z,8.02
2023-04-27T04:11:58.969Z,7.60
2023-04-27T04:14:25.744Z,6.90
2023-04-27T04:16:52.344Z,7.95
2023-04-27T04:21:45.900Z,8.93
2023-04-27T04:24:13.468Z,8.57
2023-04-27T04:26:40.142Z,8.20
2023-04-27T04:29:07.570Z,8.77
2023-04-27T04:31:35.522Z,8.15
2023-04-27T04:34:02.303Z,8.10
2023-04-27T04:36:29.045Z,8.23
2023-04-27T04:38:57.172Z,8.65
2023-04-27T04:41:24.344Z,8.65
2023-04-27T04:43:51.033Z,8.73
2023-04-27T04:46:17.891Z,7.82
2023-04-27T04:48:44.754Z,8.75
2023-04-27T04:51:11.394Z,8.82
2023-04-27T04:53:38.117Z,8.73
2023-04-27T04:56:14.418Z,8.55
2023-04-27T04:58:41.148Z,7.97
2023-04-27T05:01:07.873Z,9.45
2023-04-27T05:03:34.829Z,8.57
2023-04-27T05:06:01.849Z,8.93
2023-04-27T05:08:28.526Z,8.60
2023-04-27T05:10:55.349Z,8.32
2023-04-27T05:13:22.504Z,9.05
2023-04-27T05:15:49.156Z,8.15
2023-04-27T05:18:16.005Z,8.40
2023-04-27T05:20:42.811Z,8.07
2023-04-27T05:23:09.559Z,8.50
2023-04-27T05:25:41.749Z,8.25
2023-04-27T05:28:09.749Z,8.20
2023-04-27T05:30:36.812Z,8.10
2023-04-27T05:33:04.187Z,7.45
2023-04-27T05:35:31.471Z,8.52
2023-04-27T05:37:58.353Z,8.20
2023-04-27T05:40:25.362Z,6.72
2023-04-27T05:42:52.079Z,7.85
2023-04-27T05:45:19.355Z,6.60
2023-04-27T05:47:46.178Z,7.95
2023-04-27T05:50:12.904Z,7.25
2023-04-27T05:52:39.689Z,7.18
2023-04-27T05:55:08.023Z,6.78
2023-04-27T05:57:34.722Z,6.82
2023-04-27T06:00:01.764Z,7.82
2023-04-27T06:02:29.037Z,8.02
2023-04-27T06:04:56.613Z,8.88
2023-04-27T06:07:23.820Z,8.65
2023-04-27T06:09:50.927Z,8.55
2023-04-27T06:12:18.039Z,9.02
2023-04-27T06:14:45.104Z,9.50
2023-04-27T06:17:12.133Z,9.20
2023-04-27T06:19:39.257Z,9.18
2023-04-27T06:22:06.370Z,10.05
2023-04-27T06:24:36.260Z,8.98
2023-04-27T06:27:03.307Z,9.50
2023-04-27T06:29:30.356Z,8.32
2023-04-27T06:31:57.485Z,9.20
2023-04-27T06:34:24.157Z,9.02
2023-04-27T06:36:50.815Z,9.50
2023-04-27T06:39:17.884Z,8.90
2023-04-27T06:41:45.068Z,11.45
2023-04-27T06:44:12.132Z,9.10
2023-04-27T06:46:39.294Z,10.20
2023-04-27T06:49:06.716Z,9.75
2023-04-27T06:51:33.529Z,10.27
2023-04-27T06:54:00.383Z,10.10
2023-04-27T06:56:27.021Z,10.18
2023-04-27T06:58:53.625Z,9.88
2023-04-27T07:01:20.284Z,9.63
2023-04-27T07:03:47.182Z,9.15
2023-04-27T07:06:13.929Z,9.57
2023-04-27T07:08:40.823Z,8.77
2023-04-27T07:11:07.526Z,9.27
2023-04-27T07:13:34.209Z,8.52
2023-04-27T07:16:01.383Z,9.27
2023-04-27T07:18:28.271Z,8.68
2023-04-27T07:20:56.178Z,8.52
2023-04-27T07:23:22.773Z,8.45
2023-04-27T07:25:49.906Z,6.90
2023-04-27T07:28:16.578Z,7.05
2023-04-27T07:30:43.312Z,7.20
2023-04-27T07:33:10.096Z,7.07
2023-04-27T07:35:37.356Z,6.90
2023-04-27T07:38:03.959Z,8.27
2023-04-27T07:40:32.612Z,8.13
2023-04-27T07:42:59.845Z,7.43
2023-04-27T07:45:39.148Z,7.10
2023-04-27T07:48:06.111Z,6.55
2023-04-27T07:50:33.144Z,7.30
2023-04-27T07:53:00.401Z,6.60
2023-04-27T07:55:27.230Z,7.55
2023-04-27T07:57:54.704Z,7.28
2023-04-27T08:00:22.255Z,5.97
2023-04-27T08:02:49.504Z,6.15
2023-04-27T08:05:16.807Z,5.88
2023-04-27T08:07:44.846Z,6.20
2023-04-27T08:10:12.150Z,6.07
2023-04-27T08:12:38.787Z,6.38
2023-04-27T08:15:07.417Z,6.68
2023-04-27T08:17:36.290Z,6.90
2023-04-27T08:20:03.678Z,6.82
2023-04-27T08:22:31.615Z,6.82
2023-04-27T08:24:58.694Z,6.28
2023-04-27T08:27:25.400Z,7.72
2023-04-27T08:29:52.471Z,6.60
2023-04-27T08:32:19.053Z,6.55
2023-04-27T08:34:46.620Z,6.60
2023-04-27T08:37:13.451Z,6.10
2023-04-27T08:39:40.626Z,6.80
2023-04-27T08:42:11.936Z,6.70
2023-04-27T08:44:42.624Z,7.13
2023-04-27T08:47:09.926Z,6.80
2023-04-27T08:49:38.567Z,7.28
2023-04-27T08:52:14.866Z,6.97
2023-04-27T08:54:41.511Z,7.45
2023-04-27T08:57:15.667Z,7.13
2023-04-27T08:59:44.408Z,7.15
2023-04-27T09:02:21.412Z,6.22
2023-04-27T09:04:48.532Z,7.28
2023-04-27T09:07:17.636Z,6.93
2023-04-27T09:09:45.007Z,7.65
2023-04-27T09:12:19.489Z,7.28
2023-04-27T09:15:00.672Z,6.57
2023-04-27T09:17:28.745Z,7.22
2023-04-27T09:20:08.667Z,7.32
2023-04-27T09:22:57.617Z,6.75
2023-04-27T09:25:29.293Z,6.35
2023-04-27T09:27:57.951Z,6.40
2023-04-27T09:30:25.956Z,5.65
2023-04-27T09:33:02.425Z,7.00
2023-04-27T09:35:34.067Z,6.30
2023-04-27T09:38:01.490Z,5.38
2023-04-27T09:40:31.020Z,6.30
2023-04-27T09:43:01.501Z,5.07
2023-04-27T09:45:28.189Z,5.35
2023-04-27T09:47:55.103Z,4.65
2023-04-27T09:50:22.124Z,4.88
2023-04-27T09:52:49.069Z,4.72
2023-04-27T09:55:24.813Z,4.30
2023-04-27T09:58:19.050Z,4.53
2023-04-27T10:01:08.693Z,3.47
2023-04-27T10:03:56.688Z,5.45
2023-04-27T10:06:53.710Z,4.90
2023-04-27T10:09:23.644Z,5.47
2023-04-27T10:11:52.265Z,5.07
2023-04-27T10:14:21.437Z,4.45
2023-04-27T10:16:56.512Z,4.65
2023-04-27T10:19:24.423Z,4.75
2023-04-27T10:22:07.138Z,3.80
2023-04-27T10:24:44.221Z,4.97
2023-04-27T10:27:12.256Z,4.80
2023-04-27T10:29:43.682Z,4.03
2023-04-27T10:32:12.753Z,4.40
2023-04-27T10:34:40.524Z,4.35
2023-04-27T10:37:12.421Z,4.35
2023-04-27T10:39:48.539Z,3.85
2023-04-27T10:42:28.329Z,4.43
2023-04-27T10:45:06.246Z,4.70
2023-04-27T10:47:38.387Z,4.25
2023-04-27T10:50:07.325Z,3.60
2023-04-27T10:52:34.065Z,5.13
2023-04-27T10:55:21.130Z,4.32
2023-04-27T10:57:48.127Z,4.75
2023-04-27T11:00:18.891Z,3.75
2023-04-27T11:02:45.671Z,4.03
2023-04-27T11:05:30.290Z,3.85
2023-04-27T11:08:06.938Z,4.30
2023-04-27T11:10:35.653Z,4.07
2023-04-27T11:13:10.556Z,4.85
2023-04-27T11:15:51.276Z,4.80
2023-04-27T11:18:19.521Z,4.60
2023-04-27T11:20:49.305Z,4.60
2023-04-27T11:23:27.828Z,4.90
2023-04-27T11:25:56.004Z,4.38
2023-04-27T11:28:26.067Z,4.20
2023-04-27T11:30:56.826Z,4.78
2023-04-27T11:33:23.633Z,4.63
2023-04-27T11:35:50.260Z,4.13
2023-04-27T11:38:18.463Z,4.53
2023-04-27T11:40:46.747Z,4.25
2023-04-27T11:43:16.343Z,4.47
2023-04-27T11:45:44.979Z,3.83
2023-04-27T11:48:15.804Z,5.07
2023-04-27T11:50:50.387Z,4.68
2023-04-27T11:53:18.833Z,4.85
2023-04-27T11:55:52.365Z,4.18
2023-04-27T11:58:20.932Z,3.67
2023-04-27T12:00:47.581Z,4.45
2023-04-27T12:03:14.648Z,4.72
2023-04-27T12:05:49.901Z,4.03
2023-04-27T12:08:17.348Z,3.95
2023-04-27T12:10:44.481Z,3.53
2023-04-27T12:13:12.354Z,4.88
2023-04-27T12:15:39.234Z,4.13
2023-04-27T12:18:06.782Z,4.20
2023-04-27T12:20:34.448Z,3.78
2023-04-27T12:23:01.664Z,3.70
2023-04-27T12:25:28.869Z,3.90
2023-04-27T12:27:56.023Z,4.05
2023-04-27T12:30:24.009Z,3.90
2023-04-27T12:32:51.275Z,3.92
2023-04-27T12:35:18.420Z,3.88
2023-04-27T12:37:45.569Z,4.43
2023-04-27T12:40:12.766Z,3.92
2023-04-27T12:42:39.920Z,3.85
2023-04-27T12:45:07.351Z,3.60
2023-04-27T12:47:50.272Z,3.90
2023-04-27T12:50:21.646Z,3.47
2023-04-27T12:52:50.194Z,3.30
2023-04-27T12:55:31.520Z,3.00
2023-04-27T12:58:00.698Z,4.10
2023-04-27T13:00:29.310Z,4.13
2023-04-27T13:02:56.593Z,3.75
2023-04-27T13:05:23.933Z,3.85
2023-04-27T13:07:51.010Z,3.75
2023-04-27T13:10:18.105Z,3.53
2023-04-27T13:12:45.243Z,3.33
2023-04-27T13:15:12.447Z,3.08
2023-04-27T13:17:40.263Z,3.97
2023-04-27T13:20:09.681Z,3.72
2023-04-27T13:22:36.727Z,3.70
2023-04-27T13:25:05.934Z,3.08
2023-04-27T13:27:32.973Z,3.83
2023-04-27T13:29:59.977Z,3.53
2023-04-27T13:32:27.295Z,3.50
2023-04-27T13:34:54.363Z,3.20
2023-04-27T13:37:21.409Z,3.80
2023-04-27T13:39:48.403Z,3.55
2023-04-27T13:42:15.434Z,3.13
2023-04-27T13:44:42.469Z,4.03
2023-04-27T13:47:09.547Z,3.03
2023-04-27T13:49:36.719Z,3.60
2023-04-27T13:52:03.893Z,2.78
2023-04-27T13:54:31.032Z,3.00
2023-04-27T13:56:58.083Z,2.78
2023-04-27T13:59:25.326Z,3.72
2023-04-27T14:01:52.351Z,3.50
2023-04-27T14:04:19.470Z,3.25
2023-04-27T14:06:46.548Z,3.42
2023-04-27T14:09:13.829Z,3.40
2023-04-27T14:11:54.992Z,3.50
2023-04-27T14:14:23.492Z,3.88
2023-04-27T14:16:51.232Z,2.90
2023-04-27T14:19:20.192Z,2.90
2023-04-27T14:21:49.100Z,3.15
2023-04-27T14:24:20.873Z,2.72
2023-04-27T14:26:48.770Z,3.40
2023-04-27T14:29:15.837Z,2.63
2023-04-27T14:31:43.277Z,3.20
2023-04-27T14:34:10.821Z,3.03
2023-04-27T14:36:37.628Z,3.72
2023-04-27T14:39:06.469Z,3.80
2023-04-27T14:41:33.075Z,3.35
2023-04-27T14:43:59.741Z,3.50
2023-04-27T14:46:26.465Z,3.13
2023-04-27T14:48:53.139Z,3.20
2023-04-27T14:51:20.012Z,2.65
2023-04-27T14:53:46.618Z,2.75
2023-04-27T14:56:13.307Z,2.92
2023-04-27T14:58:40.798Z,2.85
2023-04-27T15:01:14.249Z,3.10
2023-04-27T15:03:41.628Z,2.90
2023-04-27T15:06:08.860Z,3.67
2023-04-27T15:08:36.384Z,3.33
2023-04-27T15:11:04.349Z,3.70
2023-04-27T15:13:31.480Z,3.00
2023-04-27T15:15:59.127Z,2.85
2023-04-27T15:18:26.693Z,3.15
2023-04-27T15:20:57.168Z,3.33
2023-04-27T15:23:24.694Z,2.80
2023-04-27T15:25:52.458Z,2.88
2023-04-27T15:28:19.504Z,3.38
2023-04-27T15:30:46.881Z,3.00
2023-04-27T15:33:14.475Z,2.67
2023-04-27T15:35:41.960Z,2.92
2023-04-27T15:38:10.268Z,2.47
2023-04-27T15:40:37.410Z,2.95
2023-04-27T15:43:04.917Z,4.13
2023-04-27T15:45:31.988Z,13.50
2023-04-27T15:47:58.929Z,3.63
2023-04-27T15:50:25.938Z,10.25
2023-04-27T15:52:52.873Z,3.47
2023-04-27T15:55:19.624Z,2.90
2023-04-27T15:57:46.318Z,3.17
2023-04-27T16:00:15.650Z,3.10
2023-04-27T16:02:42.827Z,3.58
2023-04-27T16:05:10.223Z,3.08
2023-04-27T16:07:39.314Z,2.92
2023-04-27T16:10:06.934Z,2.90
2023-04-27T16:12:33.997Z,3.30
2023-04-27T16:15:01.400Z,5.45
2023-04-27T16:17:31.009Z,3.58
2023-04-27T16:19:58.131Z,3.72
2023-04-27T16:22:25.407Z,3.20
2023-04-27T16:24:52.449Z,3.15
2023-04-27T16:27:20.813Z,5.45
2023-04-27T16:29:48.068Z,3.55
2023-04-27T16:32:15.653Z,3.30
2023-04-27T16:34:42.815Z,2.90
2023-04-27T16:37:11.261Z,4.10
2023-04-27T16:39:38.254Z,3.00
2023-04-27T16:42:05.545Z,3.30
2023-04-27T16:44:32.718Z,5.13
2023-04-27T16:46:59.800Z,3.60
2023-04-27T16:49:27.065Z,3.70
2023-04-27T16:51:56.115Z,3.40
2023-04-27T16:54:23.278Z,2.60
2023-04-27T16:56:50.443Z,2.90
2023-04-27T16:59:17.629Z,3.15
2023-04-27T17:01:44.732Z,2.50
2023-04-27T17:04:12.146Z,2.92
2023-04-27T17:06:40.736Z,2.85
2023-04-27T17:09:08.270Z,3.20
2023-04-27T17:11:35.354Z,2.28
2023-04-27T17:14:02.374Z,2.35
2023-04-27T17:16:29.492Z,2.30
2023-04-27T17:18:56.624Z,2.72
2023-04-27T17:21:25.032Z,2.42
2023-04-27T17:23:53.046Z,2.60
2023-04-27T17:26:21.490Z,2.75
2023-04-27T17:28:48.634Z,3.95
2023-04-27T17:31:17.453Z,3.80
2023-04-27T17:33:44.662Z,3.83
2023-04-27T17:36:12.423Z,4.18
2023-04-27T17:38:39.537Z,4.07
2023-04-27T17:41:06.776Z,3.42
2023-04-27T17:43:33.854Z,3.70
2023-04-27T17:46:01.357Z,3.47
2023-04-27T17:48:28.470Z,3.92
2023-04-27T17:50:55.624Z,4.13
2023-04-27T17:53:22.653Z,3.58
2023-04-27T17:55:49.836Z,3.92
2023-04-27T17:58:17.045Z,4.00
2023-04-27T18:00:44.293Z,3.42
2023-04-27T18:03:12.105Z,3.50
2023-04-27T18:05:39.375Z,3.53
2023-04-27T18:08:06.544Z,4.25
2023-04-27T18:10:33.591Z,3.95
2023-04-27T18:13:00.734Z,4.50
2023-04-27T18:15:27.370Z,4.40
2023-04-27T18:17:54.881Z,4.20
2023-04-27T18:20:23.352Z,3.83
2023-04-27T18:22:50.589Z,4.10
2023-04-27T18:25:17.695Z,4.10
2023-04-27T18:27:45.118Z,3.88
2023-04-27T18:30:12.300Z,4.18
2023-04-27T18:32:39.368Z,4.45
2023-04-27T18:35:06.715Z,4.25
2023-04-27T18:37:33.898Z,4.00
2023-04-27T18:40:00.979Z,4.40
2023-04-27T18:42:27.721Z,4.00
2023-04-27T18:45:00.660Z,4.60
2023-04-27T18:47:27.739Z,4.60
2023-04-27T18:49:54.885Z,4.53
2023-04-27T18:52:21.997Z,11.85
2023-04-27T18:54:49.104Z,8.88
2023-04-27T18:57:16.246Z,5.90
2023-04-27T18:59:43.326Z,6.28
2023-04-27T19:02:10.345Z,5.00
2023-04-27T19:04:37.793Z,5.03
2023-04-27T19:07:06.401Z,5.13
2023-04-27T19:09:33.477Z,5.50
2023-04-27T19:12:03.160Z,5.38
2023-04-27T19:14:31.271Z,4.60
2023-04-27T19:16:58.474Z,4.57
2023-04-27T19:19:26.548Z,4.90
2023-04-27T19:21:53.429Z,5.25
2023-04-27T19:24:20.158Z,4.78
2023-04-27T19:26:47.630Z,5.18
2023-04-27T19:29:14.596Z,5.15
2023-04-27T19:31:41.699Z,4.53
2023-04-27T19:34:08.516Z,5.40
2023-04-27T19:36:35.107Z,5.60
2023-04-27T19:39:01.800Z,5.72
2023-04-27T19:41:28.365Z,5.85
2023-04-27T19:43:55.393Z,5.13
2023-04-27T19:46:22.073Z,5.43
2023-04-27T19:48:48.823Z,6.75
2023-04-27T19:51:15.683Z,5.85
2023-04-27T19:53:42.298Z,5.60
2023-04-27T19:56:08.894Z,5.40
2023-04-27T19:58:35.880Z,4.93
2023-04-27T20:01:03.793Z,5.00
2023-04-27T20:03:30.700Z,4.90
2023-04-27T20:05:57.722Z,5.45
2023-04-27T20:08:24.947Z,5.10
2023-04-27T20:10:51.596Z,5.57
2023-04-27T20:13:19.970Z,5.15
2023-04-27T20:15:46.758Z,5.55
2023-04-27T20:18:13.502Z,4.78
2023-04-27T20:20:41.895Z,5.32
2023-04-27T20:23:08.713Z,6.03
2023-04-27T20:25:35.452Z,5.47
2023-04-27T20:28:02.295Z,5.32
2023-04-27T20:30:29.749Z,5.18
2023-04-27T20:32:56.858Z,5.35
2023-04-27T20:35:24.166Z,6.40
2023-04-27T20:37:51.993Z,5.30
2023-04-27T20:40:20.249Z,6.10
2023-04-27T20:42:49.260Z,5.75
2023-04-27T20:45:17.429Z,6.18
2023-04-27T20:47:44.559Z,6.18
2023-04-27T20:50:11.783Z,6.53
2023-04-27T20:52:38.905Z,6.20
2023-04-27T20:55:06.355Z,6.68
2023-04-27T20:57:33.468Z,5.95
2023-04-27T21:00:00.582Z,6.18
2023-04-27T21:02:27.655Z,6.05
2023-04-27T21:04:54.857Z,6.35
2023-04-27T21:07:21.939Z,5.90
2023-04-27T21:09:48.959Z,5.80
2023-04-27T21:12:17.708Z,6.35
2023-04-27T21:14:45.301Z,6.95
2023-04-27T21:17:15.059Z,5.82
2023-04-27T21:19:42.387Z,6.18
2023-04-27T21:22:09.461Z,6.75
2023-04-27T21:24:36.505Z,6.00
2023-04-27T21:27:03.845Z,5.85
2023-04-27T21:29:31.009Z,6.20
2023-04-27T21:31:58.089Z,5.68
2023-04-27T21:34:25.114Z,6.07
2023-04-27T21:36:52.206Z,6.20
2023-04-27T21:39:19.379Z,6.15
2023-04-27T21:41:46.174Z,6.28
2023-04-27T21:44:12.936Z,6.57
2023-04-27T21:46:39.695Z,5.43
2023-04-27T21:49:06.449Z,6.10
2023-04-27T21:51:34.489Z,6.57
2023-04-27T21:54:01.827Z,6.25
2023-04-27T21:56:28.787Z,6.88
2023-04-27T21:58:55.861Z,6.25
2023-04-27T22:01:22.748Z,6.60
2023-04-27T22:03:50.215Z,6.32
2023-04-27T22:06:17.393Z,6.45
2023-04-27T22:08:44.059Z,6.07
2023-04-27T22:11:10.917Z,6.03
2023-04-27T22:13:37.589Z,5.60
2023-04-27T22:16:04.485Z,6.68
2023-04-27T22:18:31.243Z,6.72
2023-04-27T22:20:58.351Z,6.88
2023-04-27T22:23:25.231Z,6.82
2023-04-27T22:25:51.887Z,7.20
2023-04-27T22:28:18.944Z,5.93
2023-04-27T22:30:46.378Z,5.78
2023-04-27T22:33:13.337Z,6.93
2023-04-27T22:35:40.073Z,6.88
2023-04-27T22:38:07.362Z,6.43
2023-04-27T22:40:34.188Z,6.05
2023-04-27T22:43:01.163Z,7.05
2023-04-27T22:45:27.820Z,6.50
2023-04-27T22:47:54.593Z,5.88
2023-04-27T22:50:21.349Z,5.60
2023-04-27T22:52:48.200Z,5.95
2023-04-27T22:55:14.888Z,5.28
2023-04-27T22:57:41.909Z,5.28
2023-04-27T23:00:11.318Z,5.28
2023-04-27T23:02:39.591Z,6.13
2023-04-27T23:05:07.164Z,4.80
2023-04-27T23:07:34.240Z,5.32
2023-04-27T23:10:02.852Z,5.05
2023-04-27T23:12:30.216Z,4.65
2023-04-27T23:14:57.456Z,5.57
2023-04-27T23:17:30.335Z,5.10
2023-04-27T23:19:58.393Z,5.30
2023-04-27T23:22:25.752Z,4.70
2023-04-27T23:24:53.785Z,4.60
2023-04-27T23:27:21.371Z,4.68
2023-04-27T23:29:48.000Z,4.65
2023-04-27T23:32:14.687Z,4.82
2023-04-27T23:34:41.750Z,5.57
2023-04-27T23:37:08.632Z,5.43
2023-04-27T23:39:35.221Z,4.57
2023-04-27T23:42:01.859Z,4.90
2023-04-27T23:44:28.561Z,4.80
2023-04-27T23:46:55.279Z,4.72
2023-04-27T23:49:21.925Z,4.63
2023-04-27T23:51:49.932Z,4.75
2023-04-27T23:54:16.697Z,4.78
2023-04-27T23:56:43.483Z,4.35
2023-04-27T23:59:11.010Z,4.57
